sensor_id;sensor_type;location;lat;lon;timestamp;pressure;altitude;pressure_sealevel;temperature;humidity
35918;BME280;22011;59.912;30.300;2023-11-19T00:01:19;102202.75;;;-1.11;58.77
35918;BME280;22011;59.912;30.300;2023-11-19T00:03:46;102199.13;;;-1.07;58.92
35918;BME280;22011;59.912;30.300;2023-11-19T00:06:14;102191.25;;;-1.07;58.90
35918;BME280;22011;59.912;30.300;2023-11-19T00:08:42;102188.75;;;-1.10;58.88
35918;BME280;22011;59.912;30.300;2023-11-19T00:11:10;102194.78;;;-1.08;58.75
35918;BME280;22011;59.912;30.300;2023-11-19T00:13:41;102191.38;;;-1.10;58.84
35918;BME280;22011;59.912;30.300;2023-11-19T00:16:08;102196.66;;;-1.11;58.75
35918;BME280;22011;59.912;30.300;2023-11-19T00:18:37;102188.88;;;-1.13;58.78
35918;BME280;22011;59.912;30.300;2023-11-19T00:21:05;102188.81;;;-1.11;58.64
35918;BME280;22011;59.912;30.300;2023-11-19T00:23:33;102182.72;;;-1.12;58.55
35918;BME280;22011;59.912;30.300;2023-11-19T00:26:01;102181.03;;;-1.13;58.58
35918;BME280;22011;59.912;30.300;2023-11-19T00:28:28;102180.13;;;-1.12;58.70
35918;BME280;22011;59.912;30.300;2023-11-19T00:30:55;102179.25;;;-1.12;58.62
35918;BME280;22011;59.912;30.300;2023-11-19T00:33:22;102172.28;;;-1.12;58.50
35918;BME280;22011;59.912;30.300;2023-11-19T00:35:51;102171.31;;;-1.09;58.55
35918;BME280;22011;59.912;30.300;2023-11-19T00:38:18;102163.41;;;-1.08;58.38
35918;BME280;22011;59.912;30.300;2023-11-19T00:40:46;102173.97;;;-1.11;58.22
35918;BME280;22011;59.912;30.300;2023-11-19T00:43:13;102150.56;;;-1.14;58.19
35918;BME280;22011;59.912;30.300;2023-11-19T00:45:40;102147.81;;;-1.11;58.29
35918;BME280;22011;59.912;30.300;2023-11-19T00:48:09;102139.06;;;-1.10;58.26
35918;BME280;22011;59.912;30.300;2023-11-19T00:50:36;102147.75;;;-1.09;58.19
35918;BME280;22011;59.912;30.300;2023-11-19T00:53:06;102140.81;;;-1.10;58.20
35918;BME280;22011;59.912;30.300;2023-11-19T00:55:33;102138.16;;;-1.09;58.31
35918;BME280;22011;59.912;30.300;2023-11-19T00:58:00;102134.63;;;-1.08;58.13
35918;BME280;22011;59.912;30.300;2023-11-19T01:00:28;102132.88;;;-1.07;58.20
35918;BME280;22011;59.912;30.300;2023-11-19T01:02:58;102131.91;;;-1.05;58.12
35918;BME280;22011;59.912;30.300;2023-11-19T01:05:25;102132.75;;;-1.04;58.10
35918;BME280;22011;59.912;30.300;2023-11-19T01:07:54;102133.84;;;-1.10;57.91
35918;BME280;22011;59.912;30.300;2023-11-19T01:10:25;102138.38;;;-1.15;57.77
35918;BME280;22011;59.912;30.300;2023-11-19T01:12:55;102133.09;;;-1.13;57.92
35918;BME280;22011;59.912;30.300;2023-11-19T01:15:23;102135.78;;;-1.15;57.72
35918;BME280;22011;59.912;30.300;2023-11-19T01:17:50;102129.84;;;-1.20;57.66
35918;BME280;22011;59.912;30.300;2023-11-19T01:20:17;102129.06;;;-1.22;57.72
35918;BME280;22011;59.912;30.300;2023-11-19T01:22:45;102122.81;;;-1.18;57.72
35918;BME280;22011;59.912;30.300;2023-11-19T01:25:14;102126.16;;;-1.14;57.66
35918;BME280;22011;59.912;30.300;2023-11-19T01:27:43;102112.97;;;-1.11;57.72
35918;BME280;22011;59.912;30.300;2023-11-19T01:30:10;102119.09;;;-1.12;57.60
35918;BME280;22011;59.912;30.300;2023-11-19T01:32:38;102120.06;;;-1.15;57.56
35918;BME280;22011;59.912;30.300;2023-11-19T01:35:06;102129.56;;;-1.12;57.64
35918;BME280;22011;59.912;30.300;2023-11-19T01:37:34;102123.38;;;-1.10;57.38
35918;BME280;22011;59.912;30.300;2023-11-19T01:40:02;102120.97;;;-1.16;57.09
35918;BME280;22011;59.912;30.300;2023-11-19T01:42:34;102128.94;;;-1.19;57.16
35918;BME280;22011;59.912;30.300;2023-11-19T01:45:05;102123.81;;;-1.22;57.30
35918;BME280;22011;59.912;30.300;2023-11-19T01:47:33;102122.22;;;-1.26;57.19
35918;BME280;22011;59.912;30.300;2023-11-19T01:50:02;102125.75;;;-1.27;57.24
35918;BME280;22011;59.912;30.300;2023-11-19T01:52:32;102116.31;;;-1.31;57.33
35918;BME280;22011;59.912;30.300;2023-11-19T01:55:02;102112.84;;;-1.32;57.33
35918;BME280;22011;59.912;30.300;2023-11-19T01:57:30;102108.47;;;-1.31;57.43
35918;BME280;22011;59.912;30.300;2023-11-19T01:59:57;102100.75;;;-1.34;57.50
35918;BME280;22011;59.912;30.300;2023-11-19T02:02:26;102097.34;;;-1.36;57.58
35918;BME280;22011;59.912;30.300;2023-11-19T02:04:53;102104.25;;;-1.35;57.63
35918;BME280;22011;59.912;30.300;2023-11-19T02:07:21;102101.75;;;-1.38;57.80
35918;BME280;22011;59.912;30.300;2023-11-19T02:09:48;102101.19;;;-1.46;57.55
35918;BME280;22011;59.912;30.300;2023-11-19T02:12:15;102104.94;;;-1.53;57.74
35918;BME280;22011;59.912;30.300;2023-11-19T02:14:43;102118.09;;;-1.56;57.79
35918;BME280;22011;59.912;30.300;2023-11-19T02:20:07;102111.91;;;-1.54;58.33
35918;BME280;22011;59.912;30.300;2023-11-19T02:22:37;102116.25;;;-1.53;58.29
35918;BME280;22011;59.912;30.300;2023-11-19T02:25:06;102111.91;;;-1.54;58.27
35918;BME280;22011;59.912;30.300;2023-11-19T02:27:42;102105.94;;;-1.57;58.27
35918;BME280;22011;59.912;30.300;2023-11-19T02:30:11;102109.38;;;-1.55;58.45
35918;BME280;22011;59.912;30.300;2023-11-19T02:32:39;102109.47;;;-1.58;58.54
35918;BME280;22011;59.912;30.300;2023-11-19T02:35:06;102114.81;;;-1.61;58.38
35918;BME280;22011;59.912;30.300;2023-11-19T02:37:34;102113.31;;;-1.69;58.30
35918;BME280;22011;59.912;30.300;2023-11-19T02:40:02;102111.66;;;-1.71;58.45
35918;BME280;22011;59.912;30.300;2023-11-19T02:42:31;102103.94;;;-1.74;58.43
35918;BME280;22011;59.912;30.300;2023-11-19T02:45:00;102105.75;;;-1.76;58.48
35918;BME280;22011;59.912;30.300;2023-11-19T02:47:27;102107.50;;;-1.77;58.48
35918;BME280;22011;59.912;30.300;2023-11-19T02:49:56;102109.25;;;-1.77;58.61
35918;BME280;22011;59.912;30.300;2023-11-19T02:52:23;102104.88;;;-1.77;58.78
35918;BME280;22011;59.912;30.300;2023-11-19T02:54:51;102106.59;;;-1.76;58.62
35918;BME280;22011;59.912;30.300;2023-11-19T02:57:18;102098.69;;;-1.74;58.58
35918;BME280;22011;59.912;30.300;2023-11-19T02:59:46;102101.25;;;-1.73;58.50
35918;BME280;22011;59.912;30.300;2023-11-19T03:02:15;102096.03;;;-1.73;58.42
35918;BME280;22011;59.912;30.300;2023-11-19T03:04:43;102093.47;;;-1.74;58.41
35918;BME280;22011;59.912;30.300;2023-11-19T03:07:11;102095.13;;;-1.72;58.51
35918;BME280;22011;59.912;30.300;2023-11-19T03:09:39;102091.66;;;-1.72;58.34
35918;BME280;22011;59.912;30.300;2023-11-19T03:12:07;102088.94;;;-1.69;58.39
35918;BME280;22011;59.912;30.300;2023-11-19T03:14:34;102085.31;;;-1.65;58.54
35918;BME280;22011;59.912;30.300;2023-11-19T03:17:02;102085.25;;;-1.63;58.21
35918;BME280;22011;59.912;30.300;2023-11-19T03:19:30;102084.63;;;-1.70;58.10
35918;BME280;22011;59.912;30.300;2023-11-19T03:21:58;102082.06;;;-1.72;57.88
35918;BME280;22011;59.912;30.300;2023-11-19T03:24:25;102075.81;;;-1.68;58.10
35918;BME280;22011;59.912;30.300;2023-11-19T03:26:52;102081.06;;;-1.68;57.86
35918;BME280;22011;59.912;30.300;2023-11-19T03:29:20;102073.22;;;-1.68;57.78
35918;BME280;22011;59.912;30.300;2023-11-19T03:31:48;102065.38;;;-1.68;57.83
35918;BME280;22011;59.912;30.300;2023-11-19T03:34:16;102066.16;;;-1.66;57.67
35918;BME280;22011;59.912;30.300;2023-11-19T03:36:44;102057.41;;;-1.65;57.65
35918;BME280;22011;59.912;30.300;2023-11-19T03:39:12;102060.03;;;-1.65;57.49
35918;BME280;22011;59.912;30.300;2023-11-19T03:41:39;102050.50;;;-1.66;57.26
35918;BME280;22011;59.912;30.300;2023-11-19T03:44:07;102059.13;;;-1.63;57.25
35918;BME280;22011;59.912;30.300;2023-11-19T03:46:34;102057.41;;;-1.65;57.08
35918;BME280;22011;59.912;30.300;2023-11-19T03:49:02;102051.41;;;-1.67;57.12
35918;BME280;22011;59.912;30.300;2023-11-19T03:51:30;102054.97;;;-1.69;56.93
35918;BME280;22011;59.912;30.300;2023-11-19T03:53:58;102061.06;;;-1.69;57.03
35918;BME280;22011;59.912;30.300;2023-11-19T03:56:26;102055.03;;;-1.71;56.97
35918;BME280;22011;59.912;30.300;2023-11-19T03:58:53;102056.72;;;-1.70;57.00
35918;BME280;22011;59.912;30.300;2023-11-19T04:01:21;102048.03;;;-1.70;57.08
35918;BME280;22011;59.912;30.300;2023-11-19T04:03:48;102040.25;;;-1.72;57.00
35918;BME280;22011;59.912;30.300;2023-11-19T04:06:15;102038.56;;;-1.73;56.90
35918;BME280;22011;59.912;30.300;2023-11-19T04:08:42;102038.72;;;-1.77;56.95
35918;BME280;22011;59.912;30.300;2023-11-19T04:11:11;102035.25;;;-1.78;57.12
35918;BME280;22011;59.912;30.300;2023-11-19T04:13:39;102031.75;;;-1.77;57.12
35918;BME280;22011;59.912;30.300;2023-11-19T04:16:06;102031.50;;;-1.71;57.31
35918;BME280;22011;59.912;30.300;2023-11-19T04:18:33;102023.66;;;-1.71;57.26
35918;BME280;22011;59.912;30.300;2023-11-19T04:21:01;102018.56;;;-1.74;57.09
35918;BME280;22011;59.912;30.300;2023-11-19T04:23:28;102019.47;;;-1.75;57.02
35918;BME280;22011;59.912;30.300;2023-11-19T04:25:56;102017.75;;;-1.76;57.16
35918;BME280;22011;59.912;30.300;2023-11-19T04:28:24;102019.47;;;-1.75;57.16
35918;BME280;22011;59.912;30.300;2023-11-19T04:30:52;102027.31;;;-1.75;57.18
35918;BME280;22011;59.912;30.300;2023-11-19T04:33:20;102032.59;;;-1.76;57.05
35918;BME280;22011;59.912;30.300;2023-11-19T04:35:47;102028.44;;;-1.82;56.82
35918;BME280;22011;59.912;30.300;2023-11-19T04:38:14;102027.69;;;-1.85;56.73
35918;BME280;22011;59.912;30.300;2023-11-19T04:40:41;102020.75;;;-1.86;56.85
35918;BME280;22011;59.912;30.300;2023-11-19T04:43:09;102021.66;;;-1.87;56.75
35918;BME280;22011;59.912;30.300;2023-11-19T04:45:38;102023.44;;;-1.88;56.78
35918;BME280;22011;59.912;30.300;2023-11-19T04:48:06;102014.78;;;-1.90;56.79
35918;BME280;22011;59.912;30.300;2023-11-19T04:50:34;102013.94;;;-1.90;56.64
35918;BME280;22011;59.912;30.300;2023-11-19T04:53:02;102013.16;;;-1.92;56.81
35918;BME280;22011;59.912;30.300;2023-11-19T04:55:29;102010.41;;;-1.89;57.08
35918;BME280;22011;59.912;30.300;2023-11-19T04:57:56;102012.88;;;-1.85;57.05
35918;BME280;22011;59.912;30.300;2023-11-19T05:00:23;102008.59;;;-1.87;56.94
35918;BME280;22011;59.912;30.300;2023-11-19T05:02:53;102009.56;;;-1.90;56.95
35918;BME280;22011;59.912;30.300;2023-11-19T05:05:20;102009.63;;;-1.91;56.90
35918;BME280;22011;59.912;30.300;2023-11-19T05:07:47;102007.00;;;-1.91;56.90
35918;BME280;22011;59.912;30.300;2023-11-19T05:10:14;102008.66;;;-1.89;57.04
35918;BME280;22011;59.912;30.300;2023-11-19T05:12:42;102006.97;;;-1.90;56.98
35918;BME280;22011;59.912;30.300;2023-11-19T05:15:09;102004.13;;;-1.84;56.85
35918;BME280;22011;59.912;30.300;2023-11-19T05:17:37;102003.97;;;-1.79;56.98
35918;BME280;22011;59.912;30.300;2023-11-19T05:20:06;102006.47;;;-1.76;56.94
35918;BME280;22011;59.912;30.300;2023-11-19T05:22:39;102010.31;;;-1.86;56.98
35918;BME280;22011;59.912;30.300;2023-11-19T05:25:06;102006.16;;;-1.92;57.06
35918;BME280;22011;59.912;30.300;2023-11-19T05:27:34;102007.88;;;-1.91;57.23
35918;BME280;22011;59.912;30.300;2023-11-19T05:30:02;102013.09;;;-1.91;57.23
35918;BME280;22011;59.912;30.300;2023-11-19T05:32:29;102002.63;;;-1.91;57.35
35918;BME280;22011;59.912;30.300;2023-11-19T05:34:56;102002.75;;;-1.94;57.33
35918;BME280;22011;59.912;30.300;2023-11-19T05:37:25;102003.72;;;-1.97;57.55
35918;BME280;22011;59.912;30.300;2023-11-19T05:39:52;102006.28;;;-1.95;57.66
35918;BME280;22011;59.912;30.300;2023-11-19T05:42:19;102006.22;;;-1.93;57.86
35918;BME280;22011;59.912;30.300;2023-11-19T05:44:47;102006.78;;;-1.85;57.85
35918;BME280;22011;59.912;30.300;2023-11-19T05:47:14;102005.78;;;-1.81;58.02
35918;BME280;22011;59.912;30.300;2023-11-19T05:49:41;102008.38;;;-1.81;57.80
35918;BME280;22011;59.912;30.300;2023-11-19T05:52:09;102000.72;;;-1.86;57.90
35918;BME280;22011;59.912;30.300;2023-11-19T05:54:39;102001.69;;;-1.88;58.05
35918;BME280;22011;59.912;30.300;2023-11-19T05:57:07;102003.50;;;-1.90;58.02
35918;BME280;22011;59.912;30.300;2023-11-19T05:59:35;102007.88;;;-1.91;58.07
35918;BME280;22011;59.912;30.300;2023-11-19T06:02:03;102001.78;;;-1.91;58.14
35918;BME280;22011;59.912;30.300;2023-11-19T06:04:30;102004.28;;;-1.88;58.15
35918;BME280;22011;59.912;30.300;2023-11-19T06:06:57;101994.69;;;-1.88;58.26
35918;BME280;22011;59.912;30.300;2023-11-19T06:09:24;101997.13;;;-1.83;58.25
35918;BME280;22011;59.912;30.300;2023-11-19T06:11:53;101992.59;;;-1.78;58.39
35918;BME280;22011;59.912;30.300;2023-11-19T06:14:22;101996.88;;;-1.76;58.39
35918;BME280;22011;59.912;30.300;2023-11-19T06:16:50;102001.19;;;-1.75;58.45
35918;BME280;22011;59.912;30.300;2023-11-19T06:19:18;102005.44;;;-1.72;58.30
35918;BME280;22011;59.912;30.300;2023-11-19T06:21:45;102003.78;;;-1.75;58.34
35918;BME280;22011;59.912;30.300;2023-11-19T06:24:12;101998.69;;;-1.78;58.42
35918;BME280;22011;59.912;30.300;2023-11-19T06:26:40;102004.91;;;-1.82;58.49
35918;BME280;22011;59.912;30.300;2023-11-19T06:29:08;101998.91;;;-1.84;58.38
35918;BME280;22011;59.912;30.300;2023-11-19T06:31:36;101997.19;;;-1.85;58.47
35918;BME280;22011;59.912;30.300;2023-11-19T06:34:03;101987.66;;;-1.86;58.61
35918;BME280;22011;59.912;30.300;2023-11-19T06:36:30;101987.72;;;-1.87;58.63
35918;BME280;22011;59.912;30.300;2023-11-19T06:38:58;101992.94;;;-1.87;58.68
35918;BME280;22011;59.912;30.300;2023-11-19T06:41:25;101987.72;;;-1.87;58.75
35918;BME280;22011;59.912;30.300;2023-11-19T06:43:52;101985.91;;;-1.85;58.92
35918;BME280;22011;59.912;30.300;2023-11-19T06:46:21;101986.63;;;-1.82;58.96
35918;BME280;22011;59.912;30.300;2023-11-19T06:48:48;101989.19;;;-1.80;59.15
35918;BME280;22011;59.912;30.300;2023-11-19T06:51:15;101987.59;;;-1.84;59.08
35918;BME280;22011;59.912;30.300;2023-11-19T06:53:43;101989.31;;;-1.83;59.03
35918;BME280;22011;59.912;30.300;2023-11-19T06:56:18;101984.09;;;-1.83;59.00
35918;BME280;22011;59.912;30.300;2023-11-19T06:58:45;101982.22;;;-1.80;59.09
35918;BME280;22011;59.912;30.300;2023-11-19T07:01:13;101979.88;;;-1.64;58.87
35918;BME280;22011;59.912;30.300;2023-11-19T07:03:42;101973.34;;;-1.52;58.51
35918;BME280;22011;59.912;30.300;2023-11-19T07:06:10;101973.09;;;-1.46;58.42
35918;BME280;22011;59.912;30.300;2023-11-19T07:08:38;101972.88;;;-1.40;58.13
35918;BME280;22011;59.912;30.300;2023-11-19T07:11:06;101980.47;;;-1.34;58.32
35918;BME280;22011;59.912;30.300;2023-11-19T07:13:35;101977.81;;;-1.33;58.07
35918;BME280;22011;59.912;30.300;2023-11-19T07:16:03;101972.34;;;-1.26;58.04
35918;BME280;22011;59.912;30.300;2023-11-19T07:18:30;101979.31;;;-1.27;57.89
35918;BME280;22011;59.912;30.300;2023-11-19T07:21:03;101973.97;;;-1.24;57.65
35918;BME280;22011;59.912;30.300;2023-11-19T07:23:31;101969.72;;;-1.26;57.68
35918;BME280;22011;59.912;30.300;2023-11-19T07:25:58;101965.34;;;-1.26;57.70
35918;BME280;22011;59.912;30.300;2023-11-19T07:28:26;101965.09;;;-1.20;57.74
35918;BME280;22011;59.912;30.300;2023-11-19T07:30:54;101963.03;;;-1.12;57.70
35918;BME280;22011;59.912;30.300;2023-11-19T07:33:23;101971.56;;;-1.07;57.75
35918;BME280;22011;59.912;30.300;2023-11-19T07:35:50;101973.88;;;-1.01;57.60
35918;BME280;22011;59.912;30.300;2023-11-19T07:38:18;101960.81;;;-1.01;57.49
35918;BME280;22011;59.912;30.300;2023-11-19T07:40:46;101967.75;;;-1.00;57.43
35918;BME280;22011;59.912;30.300;2023-11-19T07:43:14;101961.69;;;-0.80;57.24
35918;BME280;22011;59.912;30.300;2023-11-19T07:45:41;101966.41;;;-0.88;57.35
35918;BME280;22011;59.912;30.300;2023-11-19T07:48:09;101969.06;;;-0.89;57.08
35918;BME280;22011;59.912;30.300;2023-11-19T07:50:36;101969.75;;;-0.84;57.11
35918;BME280;22011;59.912;30.300;2023-11-19T07:53:04;101970.41;;;-0.79;57.05
35918;BME280;22011;59.912;30.300;2023-11-19T07:55:32;101964.91;;;-0.73;57.05
35918;BME280;22011;59.912;30.300;2023-11-19T07:58:00;101975.13;;;-0.67;56.84
35918;BME280;22011;59.912;30.300;2023-11-19T08:00:27;101979.38;;;-0.64;56.85
35918;BME280;22011;59.912;30.300;2023-11-19T08:02:54;101979.19;;;-0.60;56.76
35918;BME280;22011;59.912;30.300;2023-11-19T08:05:21;101965.78;;;-0.52;56.75
35918;BME280;22011;59.912;30.300;2023-11-19T08:07:50;101969.19;;;-0.50;56.64
35918;BME280;22011;59.912;30.300;2023-11-19T08:10:18;101964.09;;;-0.53;56.59
35918;BME280;22011;59.912;30.300;2023-11-19T08:12:47;101970.97;;;-0.51;56.63
35918;BME280;22011;59.912;30.300;2023-11-19T08:15:14;101970.09;;;-0.51;56.46
35918;BME280;22011;59.912;30.300;2023-11-19T08:17:42;101971.75;;;-0.49;56.14
35918;BME280;22011;59.912;30.300;2023-11-19T08:20:10;101960.22;;;-0.45;56.38
35918;BME280;22011;59.912;30.300;2023-11-19T08:22:37;101950.47;;;-0.41;56.11
35918;BME280;22011;59.912;30.300;2023-11-19T08:25:04;101963.25;;;-0.34;56.11
35918;BME280;22011;59.912;30.300;2023-11-19T08:27:32;101950.94;;;-0.31;55.94
35918;BME280;22011;59.912;30.300;2023-11-19T08:30:00;101951.78;;;-0.31;55.61
35918;BME280;22011;59.912;30.300;2023-11-19T08:32:28;101954.19;;;-0.26;55.71
35918;BME280;22011;59.912;30.300;2023-11-19T08:34:55;101948.81;;;-0.23;55.81
35918;BME280;22011;59.912;30.300;2023-11-19T08:37:22;101947.84;;;-0.21;55.72
35918;BME280;22011;59.912;30.300;2023-11-19T08:39:50;101945.22;;;-0.21;55.49
35918;BME280;22011;59.912;30.300;2023-11-19T08:42:17;101944.09;;;-0.15;55.52
35918;BME280;22011;59.912;30.300;2023-11-19T08:44:48;101941.47;;;-0.15;55.32
35918;BME280;22011;59.912;30.300;2023-11-19T08:47:17;101941.63;;;-0.18;55.41
35918;BME280;22011;59.912;30.300;2023-11-19T08:49:45;101938.22;;;-0.20;55.19
35918;BME280;22011;59.912;30.300;2023-11-19T08:52:12;101942.59;;;-0.21;55.13
35918;BME280;22011;59.912;30.300;2023-11-19T08:54:42;101936.50;;;-0.21;55.23
35918;BME280;22011;59.912;30.300;2023-11-19T08:57:09;101933.91;;;-0.21;54.89
35918;BME280;22011;59.912;30.300;2023-11-19T08:59:36;101935.41;;;-0.16;55.20
35918;BME280;22011;59.912;30.300;2023-11-19T09:02:04;101936.25;;;-0.15;54.98
35918;BME280;22011;59.912;30.300;2023-11-19T09:04:33;101938.72;;;-0.12;54.85
35918;BME280;22011;59.912;30.300;2023-11-19T09:07:01;101941.09;;;-0.06;55.13
35918;BME280;22011;59.912;30.300;2023-11-19T09:09:29;101937.41;;;-0.02;54.76
35918;BME280;22011;59.912;30.300;2023-11-19T09:11:57;101929.31;;;0.03;54.84
35918;BME280;22011;59.912;30.300;2023-11-19T09:14:24;101933.69;;;0.02;54.92
35918;BME280;22011;59.912;30.300;2023-11-19T09:16:51;101942.66;;;-0.02;54.96
35918;BME280;22011;59.912;30.300;2023-11-19T09:19:19;101931.31;;;-0.03;54.91
35918;BME280;22011;59.912;30.300;2023-11-19T09:21:47;101925.16;;;-0.02;54.87
35918;BME280;22011;59.912;30.300;2023-11-19T09:24:15;101923.38;;;-0.01;54.89
35918;BME280;22011;59.912;30.300;2023-11-19T09:26:42;101925.09;;;0.00;54.78
35918;BME280;22011;59.912;30.300;2023-11-19T09:29:10;101924.44;;;-0.05;54.63
35918;BME280;22011;59.912;30.300;2023-11-19T09:31:37;101919.28;;;-0.07;54.65
35918;BME280;22011;59.912;30.300;2023-11-19T09:34:05;101916.66;;;-0.07;54.67
35918;BME280;22011;59.912;30.300;2023-11-19T09:36:32;101919.97;;;-0.03;54.68
35918;BME280;22011;59.912;30.300;2023-11-19T09:39:01;101916.44;;;-0.02;54.55
35918;BME280;22011;59.912;30.300;2023-11-19T09:41:29;101915.59;;;-0.03;54.41
35918;BME280;22011;59.912;30.300;2023-11-19T09:43:57;101919.66;;;0.03;54.39
35918;BME280;22011;59.912;30.300;2023-11-19T09:46:25;101910.91;;;0.04;54.19
35918;BME280;22011;59.912;30.300;2023-11-19T09:48:53;101915.34;;;0.02;54.14
35918;BME280;22011;59.912;30.300;2023-11-19T09:51:21;101909.25;;;0.02;54.21
35918;BME280;22011;59.912;30.300;2023-11-19T09:53:49;101908.28;;;0.04;54.26
35918;BME280;22011;59.912;30.300;2023-11-19T09:56:18;101907.28;;;0.07;54.16
35918;BME280;22011;59.912;30.300;2023-11-19T09:58:45;101905.38;;;0.10;54.27
35918;BME280;22011;59.912;30.300;2023-11-19T10:01:14;101898.28;;;0.12;54.21
35918;BME280;22011;59.912;30.300;2023-11-19T10:03:41;101896.59;;;0.11;53.97
35918;BME280;22011;59.912;30.300;2023-11-19T10:06:09;101898.22;;;0.14;54.25
35918;BME280;22011;59.912;30.300;2023-11-19T10:08:37;101892.28;;;0.10;54.19
35918;BME280;22011;59.912;30.300;2023-11-19T10:11:05;101899.22;;;0.11;53.99
35918;BME280;22011;59.912;30.300;2023-11-19T10:13:34;101888.72;;;0.11;54.07
35918;BME280;22011;59.912;30.300;2023-11-19T10:16:04;101891.34;;;0.11;53.99
35918;BME280;22011;59.912;30.300;2023-11-19T10:18:31;101887.81;;;0.12;54.11
35918;BME280;22011;59.912;30.300;2023-11-19T10:21:03;101885.97;;;0.14;53.81
35918;BME280;22011;59.912;30.300;2023-11-19T10:23:31;101885.03;;;0.15;53.89
35918;BME280;22011;59.912;30.300;2023-11-19T10:26:02;101886.69;;;0.18;53.70
35918;BME280;22011;59.912;30.300;2023-11-19T10:28:38;101884.63;;;0.24;53.92
35918;BME280;22011;59.912;30.300;2023-11-19T10:31:06;101883.69;;;0.25;53.79
35918;BME280;22011;59.912;30.300;2023-11-19T10:33:33;101881.06;;;0.25;53.52
35918;BME280;22011;59.912;30.300;2023-11-19T10:36:00;101880.00;;;0.29;53.80
35918;BME280;22011;59.912;30.300;2023-11-19T10:38:30;101884.25;;;0.32;53.71
35918;BME280;22011;59.912;30.300;2023-11-19T10:40:58;101883.34;;;0.33;53.59
35918;BME280;22011;59.912;30.300;2023-11-19T10:43:25;101887.66;;;0.34;53.70
35918;BME280;22011;59.912;30.300;2023-11-19T10:45:55;101887.72;;;0.32;53.66
35918;BME280;22011;59.912;30.300;2023-11-19T10:48:35;101886.03;;;0.31;53.73
35918;BME280;22011;59.912;30.300;2023-11-19T10:51:04;101885.47;;;0.44;53.67
35918;BME280;22011;59.912;30.300;2023-11-19T10:53:33;101883.31;;;0.52;53.57
35918;BME280;22011;59.912;30.300;2023-11-19T10:56:03;101882.09;;;0.59;53.52
35918;BME280;22011;59.912;30.300;2023-11-19T10:58:32;101880.41;;;0.58;53.38
35918;BME280;22011;59.912;30.300;2023-11-19T11:01:01;101879.16;;;0.48;53.48
35918;BME280;22011;59.912;30.300;2023-11-19T11:03:29;101883.81;;;0.60;53.16
35918;BME280;22011;59.912;30.300;2023-11-19T11:05:58;101875.59;;;0.49;53.37
35918;BME280;22011;59.912;30.300;2023-11-19T11:08:29;101869.75;;;0.61;53.26
35918;BME280;22011;59.912;30.300;2023-11-19T11:10:57;101871.06;;;0.52;53.50
35918;BME280;22011;59.912;30.300;2023-11-19T11:13:25;101873.47;;;0.57;53.38
35918;BME280;22011;59.912;30.300;2023-11-19T11:15:55;101865.66;;;0.55;53.22
35918;BME280;22011;59.912;30.300;2023-11-19T11:18:25;101866.81;;;0.50;53.24
35918;BME280;22011;59.912;30.300;2023-11-19T11:20:53;101869.75;;;0.61;53.14
35918;BME280;22011;59.912;30.300;2023-11-19T11:26:22;101861.91;;;0.61;53.04
35918;BME280;22011;59.912;30.300;2023-11-19T11:28:56;101868.06;;;0.60;52.83
35918;BME280;22011;59.912;30.300;2023-11-19T11:31:29;101858.72;;;0.54;52.78
35918;BME280;22011;59.912;30.300;2023-11-19T11:34:03;101858.94;;;0.50;52.83
35918;BME280;22011;59.912;30.300;2023-11-19T11:36:33;101860.16;;;0.43;52.80
35918;BME280;22011;59.912;30.300;2023-11-19T11:39:03;101860.44;;;0.37;52.88
35918;BME280;22011;59.912;30.300;2023-11-19T11:41:33;101871.09;;;0.33;52.93
35918;BME280;22011;59.912;30.300;2023-11-19T11:44:01;101865.69;;;0.37;53.01
35918;BME280;22011;59.912;30.300;2023-11-19T11:49:15;101868.09;;;0.41;52.93
35918;BME280;22011;59.912;30.300;2023-11-19T11:54:30;101864.00;;;0.36;52.65
35918;BME280;22011;59.912;30.300;2023-11-19T11:57:01;101855.66;;;0.27;52.58
35918;BME280;22011;59.912;30.300;2023-11-19T11:59:34;101855.88;;;0.23;52.62
35918;BME280;22011;59.912;30.300;2023-11-19T12:02:03;101853.31;;;0.21;52.71
35918;BME280;22011;59.912;30.300;2023-11-19T12:04:32;101847.94;;;0.24;52.68
35918;BME280;22011;59.912;30.300;2023-11-19T12:07:04;101840.00;;;0.26;52.66
35918;BME280;22011;59.912;30.300;2023-11-19T12:09:32;101840.84;;;0.26;52.83
35918;BME280;22011;59.912;30.300;2023-11-19T12:12:12;101840.75;;;0.28;52.77
35918;BME280;22011;59.912;30.300;2023-11-19T12:20:11;101836.38;;;0.28;52.78
35918;BME280;22011;59.912;30.300;2023-11-19T12:22:39;101829.28;;;0.30;52.93
35918;BME280;22011;59.912;30.300;2023-11-19T12:25:07;101832.69;;;0.32;52.85
35918;BME280;22011;59.912;30.300;2023-11-19T12:27:35;101820.34;;;0.35;52.93
35918;BME280;22011;59.912;30.300;2023-11-19T12:30:03;101822.19;;;0.32;52.83
35918;BME280;22011;59.912;30.300;2023-11-19T12:32:37;101823.91;;;0.33;53.16
35918;BME280;22011;59.912;30.300;2023-11-19T12:35:05;101816.88;;;0.34;53.18
35918;BME280;22011;59.912;30.300;2023-11-19T12:37:33;101823.28;;;0.28;52.93
35918;BME280;22011;59.912;30.300;2023-11-19T12:40:01;101822.63;;;0.23;53.06
35918;BME280;22011;59.912;30.300;2023-11-19T12:42:37;101836.25;;;0.13;53.27
35918;BME280;22011;59.912;30.300;2023-11-19T12:45:04;101832.34;;;0.21;53.31
35918;BME280;22011;59.912;30.300;2023-11-19T12:47:32;101835.25;;;0.15;53.35
35918;BME280;22011;59.912;30.300;2023-11-19T12:49:59;101829.81;;;0.01;53.68
35918;BME280;22011;59.912;30.300;2023-11-19T12:52:26;101829.16;;;0.15;53.65
35918;BME280;22011;59.912;30.300;2023-11-19T12:54:58;101835.88;;;0.20;53.62
35918;BME280;22011;59.912;30.300;2023-11-19T13:00:17;101833.91;;;0.25;53.42
35918;BME280;22011;59.912;30.300;2023-11-19T13:02:46;101839.22;;;0.24;53.35
35918;BME280;22011;59.912;30.300;2023-11-19T13:05:27;101831.56;;;0.19;53.16
35918;BME280;22011;59.912;30.300;2023-11-19T13:08:00;101835.81;;;0.03;53.06